createdAt,value
2023-04-09T00:01:59.025Z,116
2023-04-09T00:08:04.162Z,116
2023-04-09T00:12:06.900Z,116
2023-04-09T00:14:08.639Z,116
2023-04-09T00:18:11.925Z,116
2023-04-09T00:22:14.945Z,116
2023-04-09T00:24:16.593Z,116
2023-04-09T00:28:20.128Z,116
2023-04-09T00:34:24.916Z,116
2023-04-09T00:36:27.144Z,116
2023-04-09T00:40:29.415Z,116
2023-04-09T00:44:32.077Z,116
2023-04-09T00:50:36.861Z,116
2023-04-09T00:54:40.110Z,116
2023-04-09T00:56:41.378Z,116
2023-04-09T01:00:44.418Z,116
2023-04-09T01:04:47.036Z,116
2023-04-09T01:06:48.286Z,116
2023-04-09T01:10:51.082Z,116
2023-04-09T01:16:55.689Z,116
2023-04-09T01:22:59.908Z,116
2023-04-09T01:27:02.641Z,116
2023-04-09T01:33:07.290Z,116
2023-04-09T01:37:10.320Z,116
2023-04-09T01:39:11.832Z,116
2023-04-09T01:43:14.795Z,106
2023-04-09T01:47:17.300Z,116
2023-04-09T01:49:18.401Z,112
2023-04-09T01:53:20.953Z,116
2023-04-09T01:59:24.727Z,110
2023-04-09T02:03:28.618Z,107
2023-04-09T02:05:30.171Z,110
2023-04-09T02:09:32.547Z,116
2023-04-09T02:15:37.802Z,116
2023-04-09T02:19:40.067Z,116
2023-04-09T02:21:41.879Z,116
2023-04-09T02:25:44.701Z,112
2023-04-09T02:29:47.463Z,112
2023-04-09T02:31:49.168Z,106
2023-04-09T02:35:52.466Z,116
2023-04-09T02:39:55.638Z,116
2023-04-09T02:41:57.120Z,116
2023-04-09T02:46:00.146Z,111
2023-04-09T02:48:01.481Z,109
2023-04-09T02:52:03.780Z,116
2023-04-09T02:58:08.821Z,116
2023-04-09T03:04:13.168Z,116
2023-04-09T03:08:16.069Z,116
2023-04-09T03:14:20.502Z,116
2023-04-09T03:18:24.053Z,116
2023-04-09T03:22:27.252Z,116
2023-04-09T03:24:29.121Z,116
2023-04-09T03:28:32.252Z,116
2023-04-09T03:30:33.520Z,116
2023-04-09T03:32:34.673Z,116
2023-04-09T03:34:35.660Z,116
2023-04-09T03:40:40.065Z,116
2023-04-09T03:46:54.828Z,116
2023-04-09T03:50:47.393Z,116
2023-04-09T03:56:51.957Z,116
2023-04-09T04:00:54.919Z,116
2023-04-09T04:02:56.896Z,116
2023-04-09T04:06:59.791Z,116
2023-04-09T04:11:02.800Z,116
2023-04-09T04:13:04.250Z,116
2023-04-09T04:17:06.781Z,116
2023-04-09T04:23:10.520Z,116
2023-04-09T04:27:13.750Z,116
2023-04-09T04:29:14.838Z,116
2023-04-09T04:33:17.317Z,116
2023-04-09T04:39:21.339Z,116
2023-04-09T04:43:23.707Z,114
2023-04-09T04:45:25.129Z,116
2023-04-09T04:49:28.358Z,116
2023-04-09T04:53:31.623Z,116
2023-04-09T04:55:32.824Z,116
2023-04-09T04:59:36.545Z,116
2023-04-09T05:05:41.551Z,116
2023-04-09T05:09:44.758Z,116
2023-04-09T05:11:45.828Z,116
2023-04-09T05:15:48.654Z,116
2023-04-09T05:21:52.772Z,116
2023-04-09T05:25:55.475Z,116
2023-04-09T05:27:56.553Z,116
2023-04-09T05:31:59.014Z,114
2023-04-09T05:36:02.625Z,116
2023-04-09T05:38:03.770Z,116
2023-04-09T05:42:05.753Z,116
2023-04-09T05:48:09.519Z,116
2023-04-09T05:52:12.514Z,116
2023-04-09T05:54:14.361Z,116
2023-04-09T05:56:16.091Z,116
2023-04-09T05:58:17.019Z,116
2023-04-09T06:04:21.431Z,115
2023-04-09T06:10:25.398Z,115
2023-04-09T06:14:27.553Z,116
2023-04-09T06:20:31.684Z,85
2023-04-09T06:24:34.796Z,102
2023-04-09T06:25:18.547Z,93
2023-04-09T06:29:23.804Z,36
2023-04-09T06:31:22.936Z,36
2023-04-09T06:35:26.156Z,69
2023-04-09T06:41:39.638Z,72
2023-04-09T06:45:33.509Z,82
2023-04-09T06:47:35.179Z,82
2023-04-09T06:51:37.773Z,84
2023-04-09T06:57:42.051Z,54
2023-04-09T07:01:44.453Z,72
2023-04-09T07:03:46.324Z,72
2023-04-09T07:07:59.049Z,360
2023-04-09T07:11:51.648Z,360
2023-04-09T07:13:53.435Z,67
2023-04-09T07:17:56.693Z,69
2023-04-09T07:24:00.362Z,360
2023-04-09T07:28:02.736Z,151
2023-04-09T07:30:04.012Z,151
2023-04-09T07:34:06.780Z,65
2023-04-09T07:40:11.564Z,60
2023-04-09T07:44:14.893Z,81
2023-04-09T07:46:16.159Z,117
2023-04-09T07:50:18.289Z,120
2023-04-09T07:54:21.550Z,84
2023-04-09T07:56:23.240Z,34
2023-04-09T08:00:26.006Z,96
2023-04-09T08:02:27.177Z,71
2023-04-09T08:06:29.471Z,114
2023-04-09T08:10:32.665Z,101
2023-04-09T08:12:33.926Z,80
2023-04-09T08:14:35.008Z,105
2023-04-09T08:16:35.912Z,88
2023-04-09T08:22:41.660Z,91
2023-04-09T08:24:42.751Z,127
2023-04-09T08:28:45.097Z,360
2023-04-09T08:32:47.254Z,56
2023-04-09T08:38:51.701Z,121
2023-04-09T08:42:53.965Z,121
2023-04-09T08:44:54.934Z,66
2023-04-09T08:48:57.473Z,78
2023-04-09T08:52:59.938Z,79
2023-04-09T08:55:01.071Z,85
2023-04-09T08:59:04.216Z,82
2023-04-09T09:05:08.271Z,46
2023-04-09T09:09:10.426Z,72
2023-04-09T09:11:11.927Z,25
2023-04-09T09:15:14.610Z,81
2023-04-09T09:21:19.322Z,360
2023-04-09T09:25:21.487Z,66
2023-04-09T09:27:22.821Z,62
2023-04-09T09:31:25.759Z,62
2023-04-09T09:35:28.216Z,94
2023-04-09T09:37:29.824Z,104
2023-04-09T09:41:32.044Z,86
2023-04-09T09:45:34.355Z,70
2023-04-09T09:47:35.504Z,84
2023-04-09T09:51:38.367Z,84
2023-04-09T09:53:39.374Z,84
2023-04-09T09:55:41.155Z,37
2023-04-09T09:57:42.700Z,79
2023-04-09T10:03:45.915Z,178
2023-04-09T10:05:47.399Z,79
2023-04-09T10:09:50.151Z,101
2023-04-09T10:13:54.183Z,360
2023-04-09T10:19:56.907Z,84
2023-04-09T10:23:59.116Z,85
2023-04-09T10:26:00.215Z,74
2023-04-09T10:30:02.881Z,84
2023-04-09T10:34:05.144Z,68
2023-04-09T10:36:06.528Z,360
2023-04-09T10:40:10.667Z,105
2023-04-09T10:46:12.796Z,54
2023-04-09T10:50:15.380Z,85
2023-04-09T10:52:16.955Z,123
2023-04-09T10:56:19.431Z,123
2023-04-09T11:02:23.724Z,57
2023-04-09T11:06:26.209Z,90
2023-04-09T11:08:27.959Z,72
2023-04-09T11:12:30.630Z,99
2023-04-09T11:16:33.398Z,360
2023-04-09T11:18:34.506Z,78
2023-04-09T11:22:37.129Z,57
2023-04-09T11:26:40.135Z,103
2023-04-09T11:28:41.159Z,67
2023-04-09T11:32:45.136Z,82
2023-04-09T11:34:46.885Z,38
2023-04-09T11:38:50.459Z,70
2023-04-09T11:44:53.916Z,82
2023-04-09T11:50:57.170Z,104
2023-04-09T11:55:01.005Z,79
2023-04-09T11:59:04.137Z,70
2023-04-09T12:01:05.188Z,360
2023-04-09T12:05:07.342Z,106
2023-04-09T12:09:10.160Z,68
2023-04-09T12:11:11.275Z,103
2023-04-09T12:15:13.915Z,90
2023-04-09T12:17:15.016Z,120
2023-04-09T12:19:16.608Z,156
2023-04-09T12:21:19.212Z,360
2023-04-09T12:27:21.512Z,170
2023-04-09T12:29:23.401Z,164
2023-04-09T12:37:28.943Z,155
2023-04-09T12:43:32.829Z,132
2023-04-09T12:47:35.966Z,93
2023-04-09T12:49:36.830Z,76
2023-04-09T12:53:40.423Z,157
2023-04-09T12:57:43.035Z,141
2023-04-09T12:59:44.011Z,105
2023-04-09T13:03:46.782Z,109
2023-04-09T13:09:50.294Z,114
2023-04-09T13:10:34.057Z,163
2023-04-09T13:14:37.119Z,76
2023-04-09T13:20:41.210Z,39
2023-04-09T13:24:43.338Z,136
2023-04-09T13:26:44.830Z,94
2023-04-09T13:30:47.734Z,182
2023-04-09T13:34:50.206Z,135
2023-04-09T13:36:52.060Z,360
2023-04-09T13:40:54.433Z,96
2023-04-09T13:44:57.137Z,80
2023-04-09T13:46:58.607Z,99
2023-04-09T13:51:01.326Z,139
2023-04-09T13:53:03.031Z,360
2023-04-09T13:55:04.600Z,360
2023-04-09T13:57:06.516Z,130
2023-04-09T14:03:10.810Z,146
2023-04-09T14:09:15.083Z,74
2023-04-09T14:13:18.134Z,59
2023-04-09T14:19:21.894Z,88
2023-04-09T14:23:24.075Z,360
2023-04-09T14:29:28.114Z,76
2023-04-09T14:33:30.587Z,43
2023-04-09T14:35:31.723Z,44
2023-04-09T14:39:35.074Z,78
2023-04-09T14:45:38.784Z,67
2023-04-09T14:51:43.692Z,30
2023-04-09T14:55:45.038Z,133
2023-04-09T15:01:49.368Z,133
2023-04-09T15:05:51.866Z,96
2023-04-09T15:07:53.559Z,190
2023-04-09T15:11:55.665Z,67
2023-04-09T15:15:58.886Z,97
2023-04-09T15:18:00.580Z,86
2023-04-09T15:22:02.701Z,120
2023-04-09T15:28:05.661Z,171
2023-04-09T15:32:08.465Z,115
2023-04-09T15:34:10.019Z,191
2023-04-09T15:38:13.114Z,160
2023-04-09T15:44:16.880Z,147
2023-04-09T15:48:19.922Z,87
2023-04-09T15:50:21.155Z,146
2023-04-09T15:54:23.950Z,160
2023-04-09T15:58:26.226Z,122
2023-04-09T16:00:27.145Z,119
2023-04-09T16:04:29.756Z,164
2023-04-09T16:08:32.301Z,166
2023-04-09T16:10:33.174Z,360
2023-04-09T16:14:35.952Z,180
2023-04-09T16:16:45.880Z,182
2023-04-09T16:20:39.610Z,49
2023-04-09T16:26:44.031Z,64
2023-04-09T16:32:48.389Z,47
2023-04-09T16:36:52.371Z,57
2023-04-09T16:40:54.867Z,87
2023-04-09T16:42:56.294Z,93
2023-04-09T16:46:59.949Z,112
2023-04-09T16:49:01.759Z,104
2023-04-09T16:53:04.906Z,93
2023-04-09T16:59:10.360Z,72
2023-04-09T17:05:13.936Z,81
2023-04-09T17:09:16.532Z,101
2023-04-09T17:13:19.348Z,134
2023-04-09T17:15:20.803Z,360
2023-04-09T17:19:23.392Z,40
2023-04-09T17:23:25.908Z,98
2023-04-09T17:25:26.978Z,81
2023-04-09T17:29:29.771Z,72
2023-04-09T17:31:31.100Z,73
2023-04-09T17:33:32.939Z,73
2023-04-09T17:35:34.211Z,77
2023-04-09T17:41:38.359Z,77
2023-04-09T17:43:40.167Z,77
2023-04-09T17:47:43.321Z,76
2023-04-09T17:51:45.640Z,77
2023-04-09T17:57:50.337Z,77
2023-04-09T18:01:53.052Z,77
2023-04-09T18:03:54.551Z,77
2023-04-09T18:07:56.909Z,77
2023-04-09T18:11:59.479Z,77
2023-04-09T18:14:01.175Z,77
2023-04-09T18:18:04.433Z,77
2023-04-09T18:24:08.264Z,77
2023-04-09T18:30:13.641Z,77
2023-04-09T18:34:16.756Z,77
2023-04-09T18:40:21.086Z,77
2023-04-09T18:44:23.926Z,360
2023-04-09T18:46:25.667Z,77
2023-04-09T18:50:27.484Z,77
2023-04-09T18:54:29.713Z,77
2023-04-09T18:56:30.799Z,77
2023-04-09T19:00:33.362Z,360
2023-04-09T19:06:38.111Z,360
2023-04-09T19:10:41.490Z,360
2023-04-09T19:12:42.857Z,360
2023-04-09T19:16:46.023Z,360
2023-04-09T19:22:50.187Z,360
2023-04-09T19:26:52.940Z,360
2023-04-09T19:28:54.881Z,360
2023-04-09T19:32:56.834Z,360
2023-04-09T19:36:59.714Z,360
2023-04-09T19:39:01.417Z,360
2023-04-09T19:43:04.274Z,360
2023-04-09T19:47:06.751Z,360
2023-04-09T19:49:08.525Z,360
2023-04-09T19:53:11.802Z,360
2023-04-09T19:55:13.553Z,360
2023-04-09T19:55:57.428Z,360
2023-04-09T20:00:00.913Z,360
2023-04-09T20:06:05.683Z,360
2023-04-09T20:10:08.140Z,360
2023-04-09T20:16:11.755Z,360
2023-04-09T20:20:14.760Z,360
2023-04-09T20:22:16.545Z,360
2023-04-09T20:26:18.976Z,360
2023-04-09T20:30:21.081Z,360
2023-04-09T20:32:22.318Z,360
2023-04-09T20:36:24.648Z,360
2023-04-09T20:42:29.215Z,360
2023-04-09T20:46:32.193Z,360
2023-04-09T20:48:33.932Z,360
2023-04-09T20:52:37.293Z,360
2023-04-09T20:58:41.030Z,360
2023-04-09T21:02:44.531Z,360
2023-04-09T21:04:45.591Z,360
2023-04-09T21:08:47.700Z,360
2023-04-09T21:12:50.627Z,360
2023-04-09T21:14:52.623Z,360
2023-04-09T21:18:55.655Z,360
2023-04-09T21:25:00.222Z,360
2023-04-09T21:29:02.943Z,360
2023-04-09T21:31:04.427Z,360
2023-04-09T21:35:07.426Z,360
2023-04-09T21:41:11.757Z,360
2023-04-09T21:45:14.889Z,360
2023-04-09T21:47:16.020Z,360
2023-04-09T21:51:19.337Z,360
2023-04-09T21:55:21.896Z,360
2023-04-09T21:57:23.469Z,360
2023-04-09T22:01:28.950Z,360
2023-04-09T22:05:30.132Z,360
2023-04-09T22:07:32.073Z,360
2023-04-09T22:11:35.437Z,360
2023-04-09T22:13:36.942Z,360
2023-04-09T22:15:38.162Z,360
2023-04-09T22:17:39.480Z,360
2023-04-09T22:23:44.788Z,360
2023-04-09T22:29:49.298Z,360
2023-04-09T22:33:52.047Z,360
2023-04-09T22:39:55.995Z,360
2023-04-09T22:43:59.580Z,360
2023-04-09T22:48:02.032Z,360
2023-04-09T22:50:03.202Z,360
2023-04-09T22:54:06.276Z,360
2023-04-09T22:56:07.646Z,360
2023-04-09T23:00:10.865Z,360
2023-04-09T23:06:15.079Z,360
2023-04-09T23:12:19.480Z,360
2023-04-09T23:16:22.420Z,360
2023-04-09T23:22:26.354Z,360
2023-04-09T23:26:30.014Z,360
2023-04-09T23:28:31.429Z,360
2023-04-09T23:32:34.575Z,360
2023-04-09T23:36:38.088Z,360
2023-04-09T23:38:39.543Z,360
2023-04-09T23:42:42.706Z,360
2023-04-09T23:48:46.951Z,360
2023-04-09T23:52:50.300Z,360
2023-04-09T23:54:51.373Z,360
2023-04-09T23:58:54.529Z,360
